Time;durP1;ratioP1;P1;durP2;ratioP2;P2;SDS_P1;SDS_P2;PMS_P1;PMS_P2;Temp;Humidity;BMP_temperature;BMP_pressure;BME280_temperature;BME280_humidity;BME280_pressure;Samples;Min_cycle;Max_cycle;Signal;HPM_P1;HPM_P2
2022/03/05 00:02:29;;;;;;;22.23;9.85;;;;;;;-0.51;63.95;92362.44;5096591;28;20044;-90
2022/03/05 00:05:18;;;;;;;;;;;;;;;;;;;;;
2022/03/05 00:08:20;;;;;;;18.35;8.95;;;;;;;-0.41;63.46;92382.44;5083004;28;20083;-90
2022/03/05 00:11:25;;;;;;;;;;;;;;;;;;;;;
2022/03/05 00:14:34;;;;;;;21.35;9.88;;;;;;;-0.29;63.05;92421.84;5065490;28;20074;-89
2022/03/05 00:17:33;;;;;;;25.27;9.10;;;;;;;-0.56;62.79;92377.75;5094336;28;20128;-89
2022/03/05 00:20:19;;;;;;;22.65;9.48;;;;;;;-0.22;62.45;92440.53;5079056;28;20137;-89
2022/03/05 00:23:22;;;;;;;16.88;8.40;;;;;;;-0.53;62.14;92394.53;5079486;28;20043;-89
2022/03/05 00:26:29;;;;;;;16.45;8.18;;;;;;;-0.69;61.93;92373.56;5077867;28;20512;-90
2022/03/05 00:28:59;;;;;;;23.38;8.88;;;;;;;-0.68;61.83;92366.63;5077993;28;20043;-90
2022/03/05 00:31:39;;;;;;;17.77;9.43;;;;;;;-0.40;61.36;92412.31;5062301;28;20041;-89
2022/03/05 00:34:28;;;;;;;16.27;8.38;;;;;;;-0.51;60.97;92400.22;5061675;28;20039;-89
2022/03/05 00:37:36;;;;;;;17.23;8.35;;;;;;;-0.51;61.09;92393.28;5079350;28;20801;-89
2022/03/05 00:39:59;;;;;;;17.23;8.38;;;;;;;-0.68;60.62;92364.84;5076195;28;20412;-89
2022/03/05 00:42:50;;;;;;;19.05;8.23;;;;;;;-0.50;60.43;92409.50;5079367;28;20039;-89
2022/03/05 00:45:55;;;;;;;20.90;9.18;;;;;;;-0.28;60.65;92444.00;5079036;28;20044;-87
2022/03/05 00:48:43;;;;;;;15.75;8.00;;;;;;;-0.28;60.19;92440.66;5096454;28;20028;-89
2022/03/05 00:51:43;;;;;;;15.60;7.70;;;;;;;-0.69;59.94;92381.28;5079348;28;20028;-89
2022/03/05 00:55:10;;;;;;;17.77;8.25;;;;;;;-0.75;59.55;92371.09;5090616;28;20052;-89
2022/03/05 00:58:00;;;;;;;;;;;;;;;;;;;;;
2022/03/05 01:01:03;;;;;;;15.80;7.45;;;;;;;-0.72;57.85;92380.94;5079199;28;20038;-89
2022/03/05 01:06:41;;;;;;;14.77;6.95;;;;;;;-0.77;58.01;92368.72;5058984;28;20052;-90
2022/03/05 01:09:28;;;;;;;16.50;6.88;;;;;;;-0.71;57.11;92367.88;5067267;28;20085;-90
2022/03/05 01:12:12;;;;;;;14.43;6.90;;;;;;;-0.69;56.91;92370.22;5076936;28;20085;-89
2022/03/05 01:15:10;;;;;;;15.38;6.80;;;;;;;-0.65;56.79;92377.28;5066444;28;20134;-88
2022/03/05 01:18:03;;;;;;;;;;;;;;;;;;;;;
2022/03/05 01:20:57;;;;;;;14.10;7.40;;;;;;;-0.53;56.83;92373.94;5042497;28;20040;-89
2022/03/05 01:23:57;;;;;;;13.48;7.15;;;;;;;-0.13;55.96;92435.88;5056742;28;20032;-89
2022/03/05 01:27:02;;;;;;;;;;;;;;;;;;;;;
2022/03/05 01:29:41;;;;;;;12.00;6.93;;;;;;;-0.35;54.32;92389.28;5078597;28;20042;-89
2022/03/05 01:32:58;;;;;;;15.00;6.40;;;;;;;-0.32;54.11;92390.63;5078790;28;20028;-87
2022/03/05 01:35:48;;;;;;;13.93;7.22;;;;;;;-0.41;52.13;92367.03;5063998;28;20043;-89
2022/03/05 01:38:47;;;;;;;12.30;6.35;;;;;;;-0.04;52.57;92402.88;5061015;28;20374;-89
2022/03/05 01:41:38;;;;;;;;;;;;;;;;;;;;;
2022/03/05 01:44:54;;;;;;;15.40;6.72;;;;;;;-0.09;52.24;92380.38;5094878;28;20050;-88
2022/03/05 01:48:01;;;;;;;;;;;;;;;;;;;;;
2022/03/05 01:51:16;;;;;;;11.50;6.30;;;;;;;0.28;51.95;92423.13;5056370;28;20043;-89
2022/03/05 01:53:53;;;;;;;17.00;7.38;;;;;;;0.03;51.78;92382.94;5043766;28;20032;-89
2022/03/05 01:56:53;;;;;;;15.30;6.72;;;;;;;-0.01;51.84;92371.53;5041280;28;20048;-89
2022/03/05 01:59:59;;;;;;;13.50;6.75;;;;;;;0.14;51.31;92399.41;5040678;28;20041;-89
2022/03/05 02:02:52;;;;;;;11.63;5.95;;;;;;;-0.13;51.74;92358.66;5057690;28;20059;-89
2022/03/05 02:05:34;;;;;;;16.00;6.30;;;;;;;0.06;51.00;92376.56;5056964;28;20035;-89
2022/03/05 02:08:25;;;;;;;17.13;6.80;;;;;;;-0.05;50.55;92347.25;5046298;28;20053;-89
2022/03/05 02:10:59;;;;;;;13.77;6.70;;;;;;;0.01;50.92;92359.22;5056084;28;20069;-89
2022/03/05 02:13:41;;;;;;;16.38;7.18;;;;;;;0.18;50.46;92382.47;5025454;28;20079;-89
2022/03/05 02:16:35;;;;;;;14.50;7.13;;;;;;;0.47;50.28;92413.47;5055950;28;20040;-89
2022/03/05 02:19:19;;;;;;;14.65;7.00;;;;;;;0.10;50.01;92352.72;5050910;28;20061;-90
2022/03/05 02:22:06;;;;;;;14.63;6.53;;;;;;;0.24;50.66;92355.84;5058489;28;20474;-89
2022/03/05 02:25:01;;;;;;;14.98;6.80;;;;;;;0.22;50.73;92344.22;5055768;28;20464;-89
2022/03/05 02:27:40;;;;;;;18.23;7.95;;;;;;;0.29;51.37;92347.44;5039957;28;20504;-89
2022/03/05 02:30:21;;;;;;;15.60;7.45;;;;;;;0.43;52.07;92338.47;5039585;28;20079;-89
2022/03/05 02:33:19;;;;;;;;;;;;;;;;;;;;;
2022/03/05 02:36:28;;;;;;;16.60;8.20;;;;;;;0.47;52.91;92338.78;5061635;28;20076;-89
2022/03/05 02:39:24;;;;;;;;;;;;;;;;;;;;;
2022/03/05 02:42:33;;;;;;;;;;;;;;;;;;;;;
2022/03/05 02:48:36;;;;;;;16.33;7.55;;;;;;;0.79;53.50;92388.91;5054189;28;20102;-89
2022/03/05 02:51:20;;;;;;;17.23;7.75;;;;;;;0.44;53.46;92331.53;5024799;28;20049;-89
2022/03/05 02:54:23;;;;;;;21.58;7.75;;;;;;;0.96;53.76;92391.53;5057036;28;20029;-89
2022/03/05 03:00:52;;;;;;;;;;;;;;;;;;;;;
2022/03/05 03:03:45;;;;;;;16.80;7.97;;;;;;;0.52;54.43;92339.69;5073286;28;20490;-89
2022/03/05 03:06:16;;;;;;;15.40;7.63;;;;;;;0.54;54.90;92342.81;5040594;28;20189;-89
2022/03/05 03:09:07;;;;;;;17.85;7.38;;;;;;;0.51;54.73;92340.69;5073089;28;20107;-90
2022/03/05 03:11:41;;;;;;;15.40;7.60;;;;;;;0.49;54.79;92340.13;5038996;28;20045;-90
2022/03/05 03:14:53;;;;;;;20.10;8.52;;;;;;;0.77;54.52;92378.03;5049670;28;20445;-90
2022/03/05 03:17:25;;;;;;;18.17;7.80;;;;;;;0.51;54.42;92338.09;5039161;28;20068;-89
2022/03/05 03:20:03;;;;;;;17.05;7.68;;;;;;;0.79;54.39;92370.84;5055712;28;20071;-90
2022/03/05 03:25:56;;;;;;;;;;;;;;;;;;;;;
2022/03/05 03:28:40;;;;;;;;;;;;;;;;;;;;;
2022/03/05 03:31:11;;;;;;;17.13;7.50;;;;;;;0.61;53.89;92342.69;5059312;28;20036;-89
2022/03/05 03:34:14;;;;;;;;;;;;;;;;;;;;;
2022/03/05 03:37:16;;;;;;;;;;;;;;;;;;;;;
2022/03/05 03:40:03;;;;;;;17.00;8.00;;;;;;;0.64;53.97;92331.13;5079092;28;20039;-89
2022/03/05 03:46:08;;;;;;;16.92;8.27;;;;;;;0.65;54.23;92350.72;5090897;28;20055;-90
2022/03/05 03:49:09;;;;;;;;;;;;;;;;;;;;;
2022/03/05 03:52:13;;;;;;;;;;;;;;;;;;;;;
2022/03/05 03:55:14;;;;;;;23.77;7.70;;;;;;;0.61;55.14;92353.78;5091211;28;20097;-91
2022/03/05 03:57:53;;;;;;;14.90;7.78;;;;;;;0.93;54.92;92406.69;5078853;28;20123;-90
2022/03/05 04:00:44;;;;;;;16.98;7.55;;;;;;;0.54;54.28;92353.13;5080795;28;20032;-89
2022/03/05 04:03:46;;;;;;;;;;;;;;;;;;;;;
2022/03/05 04:09:50;;;;;;;14.40;7.85;;;;;;;0.70;53.52;92384.31;5043299;28;20468;-90
2022/03/05 04:12:49;;;;;;;;;;;;;;;;;;;;;
2022/03/05 04:15:23;;;;;;;19.10;7.65;;;;;;;0.54;53.70;92347.16;5058009;28;20064;-89
2022/03/05 04:18:25;;;;;;;16.48;7.60;;;;;;;0.55;54.25;92359.81;5072135;28;20033;-89
2022/03/05 04:21:05;;;;;;;17.42;7.75;;;;;;;0.44;53.91;92355.47;5075438;28;20476;-88
2022/03/05 04:24:12;;;;;;;17.88;8.05;;;;;;;0.44;53.73;92360.63;5095874;28;20101;-89
2022/03/05 04:27:00;;;;;;;;;;;;;;;;;;;;;
2022/03/05 04:29:57;;;;;;;27.17;8.65;;;;;;;0.66;53.93;92398.69;5082985;28;20398;-90
2022/03/05 04:32:59;;;;;;;17.30;7.85;;;;;;;0.34;54.18;92355.28;5065754;28;20043;-89
2022/03/05 04:35:49;;;;;;;;;;;;;;;;;;;;;
2022/03/05 04:39:26;;;;;;;17.20;8.30;;;;;;;0.60;54.27;92408.88;5095057;28;20044;-89
2022/03/05 04:42:09;;;;;;;19.58;8.20;;;;;;;0.81;54.46;92432.47;5092188;28;20046;-90
2022/03/05 04:45:08;;;;;;;16.73;7.90;;;;;;;0.35;54.48;92364.56;5066996;28;20043;-89
2022/03/05 04:48:01;;;;;;;16.27;7.78;;;;;;;0.36;54.49;92377.22;5045356;28;20090;-89
2022/03/05 04:50:55;;;;;;;;;;;;;;;;;;;;;
2022/03/05 04:53:31;;;;;;;;;;;;;;;0.78;54.50;92440.66;5076154;28;20063;-89
2022/03/05 04:59:28;;;;;;;18.58;7.78;;;;;;;0.31;54.66;92384.06;5075163;28;20032;-89
2022/03/05 05:02:00;;;;;;;16.17;8.00;;;;;;;0.27;55.16;92376.00;5013114;28;20457;-86
2022/03/05 05:04:30;;;;;;;14.52;7.38;;;;;;;0.55;54.83;92419.06;5036852;28;20049;-87
2022/03/05 05:07:05;;;;;;;16.30;7.65;;;;;;;0.33;55.27;92392.34;5043448;28;20037;-87
2022/03/05 05:09:42;;;;;;;15.32;7.55;;;;;;;0.52;55.10;92411.81;5052832;28;20039;-86
2022/03/05 05:12:31;;;;;;;17.95;7.97;;;;;;;0.37;55.53;92383.16;5068089;28;20051;-88
2022/03/05 05:15:56;;;;;;;18.20;7.90;;;;;;;0.62;55.36;92430.03;5053326;28;20486;-87
2022/03/05 05:19:24;;;;;;;20.70;8.00;;;;;;;0.44;55.82;92408.78;5049853;28;20041;-89
2022/03/05 05:21:38;;;;;;;;;;;;;;;;;;;;;
2022/03/05 05:24:13;;;;;;;18.13;8.07;;;;;;;0.28;55.94;92402.53;5055067;28;20048;-86
2022/03/05 05:27:11;;;;;;;15.98;8.25;;;;;;;0.10;56.19;92383.63;5057683;28;20044;-86
2022/03/05 05:30:09;;;;;;;;;;;;;;;;;;;;;
2022/03/05 05:32:55;;;;;;;19.33;7.97;;;;;;;0.16;56.77;92395.59;5074315;28;20033;-86
2022/03/05 05:35:45;;;;;;;16.25;7.63;;;;;;;0.39;56.80;92433.41;5052484;28;20036;-87
2022/03/05 05:38:35;;;;;;;16.65;7.38;;;;;;;0.14;57.39;92397.63;5067714;28;20037;-86
2022/03/05 05:41:08;;;;;;;;;;;;;;;0.56;57.07;92464.44;5053511;28;20029;-86
2022/03/05 05:43:44;;;;;;;16.33;7.80;;;;;;;0.36;57.45;92435.66;5052605;28;19917;-86
2022/03/05 05:46:25;;;;;;;;;;;;;;;;;;;;;
2022/03/05 05:49:10;;;;;;;;;;;;;;;;;;;;;
2022/03/05 05:52:19;;;;;;;;;;;;;;;;;;;;;
2022/03/05 05:54:55;;;;;;;16.58;8.00;;;;;;;0.22;57.92;92411.16;5068778;28;20048;-85
2022/03/05 05:57:54;;;;;;;15.38;7.63;;;;;;;0.12;58.10;92391.91;5053235;28;20048;-86
2022/03/05 06:00:52;;;;;;;18.58;7.88;;;;;;;0.34;57.70;92441.03;5057385;28;20323;-86
2022/03/05 06:03:25;;;;;;;14.32;7.88;;;;;;;0.13;58.51;92408.13;5062044;28;20119;-86
2022/03/05 06:06:19;;;;;;;16.92;7.28;;;;;;;0.36;58.35;92440.81;5045693;28;20052;-86
2022/03/05 06:09:03;;;;;;;14.25;7.32;;;;;;;0.43;58.49;92449.22;5054112;28;20060;-86
2022/03/05 06:12:10;;;;;;;16.33;6.88;;;;;;;0.10;58.08;92406.78;5038027;28;20060;-87
2022/03/05 06:14:56;;;;;;;21.90;7.95;;;;;;;0.27;58.26;92421.53;5060976;28;20040;-86
2022/03/05 06:18:00;;;;;;;;;;;;;;;;;;;;;
2022/03/05 06:21:10;;;;;;;;;;;;;;;;;;;;;
2022/03/05 06:23:59;;;;;;;20.40;8.88;;;;;;;0.09;58.66;92407.81;5055600;28;20032;-87
2022/03/05 06:27:16;;;;;;;15.15;8.07;;;;;;;0.34;58.91;92438.47;5072718;28;20044;-87
2022/03/05 06:30:02;;;;;;;15.27;8.32;;;;;;;0.25;58.55;92426.13;5032854;28;20048;-85
2022/03/05 06:32:48;;;;;;;14.63;7.13;;;;;;;0.23;58.17;92413.50;5030172;28;20047;-87
2022/03/05 06:35:16;;;;;;;17.65;8.32;;;;;;;0.28;58.43;92426.47;5031754;28;20048;-85
2022/03/05 06:37:51;;;;;;;16.52;8.00;;;;;;;0.34;58.25;92433.31;5052050;28;20067;-86
2022/03/05 06:40:21;;;;;;;17.52;7.65;;;;;;;0.24;58.10;92403.97;5072182;28;20110;-88
2022/03/05 06:42:55;;;;;;;16.63;8.45;;;;;;;0.32;58.51;92403.66;5037922;28;20032;-85
2022/03/05 06:45:23;;;;;;;18.42;8.82;;;;;;;0.61;57.74;92441.34;5050319;28;20032;-88
2022/03/05 06:47:48;;;;;;;15.63;7.88;;;;;;;0.65;58.09;92440.91;5034296;28;20048;-85
2022/03/05 06:50:19;;;;;;;18.35;8.32;;;;;;;0.42;57.35;92401.28;5018530;28;20045;-87
2022/03/05 06:52:53;;;;;;;17.92;8.57;;;;;;;0.67;57.36;92424.19;5056250;28;20033;-86
2022/03/05 06:55:23;;;;;;;24.70;8.20;;;;;;;0.75;57.27;92431.59;5065268;28;20452;-85
2022/03/05 06:58:07;;;;;;;17.35;8.63;;;;;;;0.71;57.52;92409.09;5045763;28;20127;-86
2022/03/05 07:00:37;;;;;;;17.98;8.40;;;;;;;1.03;57.33;92448.09;5061710;28;20032;-88
2022/03/05 07:03:05;;;;;;;16.20;8.13;;;;;;;0.86;56.67;92406.00;5049492;28;20059;-85
2022/03/05 07:05:31;;;;;;;16.83;8.63;;;;;;;1.34;56.58;92461.59;5068450;28;20125;-88
2022/03/05 07:08:02;;;;;;;17.50;8.55;;;;;;;1.39;55.93;92439.22;5046113;28;20051;-86
2022/03/05 07:10:28;;;;;;;14.73;7.68;;;;;;;1.51;55.34;92417.75;5048595;28;20212;-86
2022/03/05 07:12:56;;;;;;;14.77;8.13;;;;;;;1.81;54.60;92420.88;5050992;28;20024;-90
2022/03/05 07:15:34;;;;;;;16.63;7.95;;;;;;;1.99;53.82;92409.53;5074611;28;20045;-86
2022/03/05 07:18:19;;;;;;;;;;;;;;;;;;;;;
2022/03/05 07:20:53;;;;;;;18.08;8.52;;;;;;;2.46;54.03;92447.16;5065302;28;20036;-88
2022/03/05 07:23:21;;;;;;;17.05;8.65;;;;;;;2.84;53.92;92476.63;5038219;28;20523;-86
2022/03/05 07:25:52;;;;;;;18.15;8.93;;;;;;;3.04;52.53;92414.81;5060547;28;20032;-86
2022/03/05 07:28:18;;;;;;;16.05;8.32;;;;;;;3.57;51.07;92432.44;5052131;28;20085;-86
2022/03/05 07:30:56;;;;;;;18.83;8.70;;;;;;;3.40;50.82;92417.78;5069195;28;20035;-86
2022/03/05 07:33:22;;;;;;;17.95;8.93;;;;;;;3.97;50.66;92453.53;5071494;28;20040;-89
2022/03/05 07:35:48;;;;;;;16.63;7.93;;;;;;;4.96;49.23;92473.94;5055188;28;20427;-85
2022/03/05 07:38:14;;;;;;;16.65;9.05;;;;;;;5.38;47.29;92421.94;5069320;28;20048;-86
2022/03/05 07:40:39;;;;;;;19.48;8.32;;;;;;;5.67;46.90;92446.66;5063494;28;20119;-85
2022/03/05 07:43:05;;;;;;;17.83;8.48;;;;;;;5.53;48.13;92475.72;5064937;28;20062;-86
2022/03/05 07:45:31;;;;;;;18.13;8.93;;;;;;;5.29;47.45;92472.00;5069291;28;20047;-85
2022/03/05 07:47:56;;;;;;;16.63;8.77;;;;;;;4.93;49.16;92475.22;5069966;28;20039;-86
2022/03/05 07:50:22;;;;;;;16.00;8.15;;;;;;;4.84;49.76;92466.34;5061872;28;20037;-88
2022/03/05 07:52:48;;;;;;;16.67;8.65;;;;;;;4.55;50.07;92474.44;5048290;28;20079;-84
2022/03/05 07:55:13;;;;;;;17.67;9.02;;;;;;;4.58;50.33;92468.75;5090200;28;20062;-85
2022/03/05 07:57:39;;;;;;;17.52;8.10;;;;;;;4.32;51.48;92470.41;5038294;28;20041;-88
2022/03/05 08:00:05;;;;;;;14.95;7.85;;;;;;;4.68;51.23;92483.59;5050730;28;20028;-84
2022/03/05 08:02:37;;;;;;;;;;;;;;;3.74;52.61;92495.28;5082541;28;20047;-84
2022/03/05 08:05:03;;;;;;;15.88;8.18;;;;;;;3.99;54.10;92460.28;5053201;28;19920;-84
2022/03/05 08:07:28;;;;;;;15.90;8.15;;;;;;;4.61;51.88;92474.47;5068662;28;20039;-85
2022/03/05 08:09:54;;;;;;;15.40;8.35;;;;;;;5.11;51.53;92481.78;5058875;28;20040;-85
2022/03/05 08:12:19;;;;;;;15.90;8.15;;;;;;;5.16;50.96;92473.25;5057009;28;20027;-85
2022/03/05 08:14:45;;;;;;;16.75;8.20;;;;;;;5.21;50.18;92489.59;5046333;28;20385;-89
2022/03/05 08:17:12;;;;;;;19.40;9.25;;;;;;;4.69;51.35;92498.13;5041294;28;20047;-85
2022/03/05 08:19:37;;;;;;;15.60;8.18;;;;;;;4.35;52.45;92485.44;5071463;28;20036;-85
2022/03/05 08:22:03;;;;;;;21.30;8.85;;;;;;;4.79;51.85;92495.59;5053226;28;20032;-87
2022/03/05 08:24:29;;;;;;;19.60;8.52;;;;;;;5.12;50.52;92495.53;5072033;28;20044;-85
2022/03/05 08:26:55;;;;;;;19.27;8.05;;;;;;;5.18;50.64;92487.53;5054439;28;20024;-84
2022/03/05 08:29:20;;;;;;;19.40;8.85;;;;;;;5.32;50.12;92494.88;5051708;28;20093;-86
2022/03/05 08:31:46;;;;;;;19.35;9.40;;;;;;;5.24;50.20;92482.34;5044607;28;20039;-89
2022/03/05 08:34:11;;;;;;;17.95;9.50;;;;;;;4.93;50.44;92485.59;5059192;28;20047;-85
2022/03/05 08:36:37;;;;;;;15.07;8.18;;;;;;;4.92;51.05;92475.44;5068412;28;20028;-84
2022/03/05 08:39:06;;;;;;;17.08;8.77;;;;;;;4.87;50.49;92467.66;5090590;28;20107;-86
2022/03/05 08:41:32;;;;;;;19.15;8.82;;;;;;;4.14;52.18;92463.78;5068985;28;20162;-86
2022/03/05 08:43:58;;;;;;;16.45;8.90;;;;;;;4.24;51.97;92481.22;5036088;28;20044;-85
2022/03/05 08:46:23;;;;;;;15.52;8.55;;;;;;;4.43;51.97;92479.03;5069228;28;20127;-84
2022/03/05 08:48:49;;;;;;;17.75;9.13;;;;;;;3.83;52.10;92470.50;5057863;28;20389;-87
2022/03/05 08:51:15;;;;;;;24.08;9.52;;;;;;;3.86;52.37;92482.16;5042252;28;20032;-85
2022/03/05 08:53:40;;;;;;;17.92;9.38;;;;;;;3.87;52.56;92473.38;5066823;28;20049;-86
2022/03/05 08:56:06;;;;;;;18.08;9.07;;;;;;;3.86;51.24;92482.94;5072443;28;20100;-88
2022/03/05 08:58:32;;;;;;;19.77;8.77;;;;;;;3.33;52.53;92482.66;5072586;28;20055;-85
2022/03/05 09:01:01;;;;;;;16.35;8.05;;;;;;;3.05;52.59;92462.91;5060905;28;20397;-85
2022/03/05 09:03:27;;;;;;;19.20;8.80;;;;;;;2.28;54.89;92485.13;5094083;28;20057;-85
2022/03/05 09:06:03;;;;;;;17.33;8.45;;;;;;;2.18;54.72;92474.63;5053901;28;20378;-86
2022/03/05 09:08:29;;;;;;;14.48;7.80;;;;;;;2.23;55.61;92489.41;5055866;28;20035;-84
2022/03/05 09:10:59;;;;;;;17.27;8.63;;;;;;;1.77;57.04;92442.22;5075535;28;20043;-85
2022/03/05 09:13:26;;;;;;;17.77;8.02;;;;;;;1.93;55.74;92446.59;5041175;28;20033;-86
2022/03/05 09:15:57;;;;;;;16.75;8.57;;;;;;;1.74;54.95;92442.69;5031834;28;20093;-85
2022/03/05 09:18:23;;;;;;;18.02;8.02;;;;;;;1.21;56.25;92413.63;5075175;28;20074;-86
2022/03/05 09:20:51;;;;;;;15.52;7.05;;;;;;;1.41;56.80;92455.25;5059264;28;20120;-85
2022/03/05 09:23:17;;;;;;;15.57;7.45;;;;;;;1.24;57.03;92459.63;5075275;28;20113;-86
2022/03/05 09:25:45;;;;;;;17.00;9.10;;;;;;;0.49;58.51;92416.63;5075241;28;20067;-86
2022/03/05 09:28:14;;;;;;;16.75;7.68;;;;;;;1.14;57.46;92483.38;5071993;28;20484;-87
2022/03/05 09:30:39;;;;;;;16.77;7.85;;;;;;;1.01;57.88;92479.28;5074762;28;20032;-89
2022/03/05 09:33:15;;;;;;;;;;;;;;;;;;;;;
2022/03/05 09:35:49;;;;;;;13.32;6.78;;;;;;;1.04;57.68;92453.03;5086474;28;20405;-88
2022/03/05 09:38:18;;;;;;;15.43;7.57;;;;;;;0.88;58.53;92440.06;5091969;28;20071;-90
2022/03/05 09:40:52;;;;;;;13.45;7.18;;;;;;;0.87;57.60;92449.59;5072519;28;20078;-87
2022/03/05 09:43:20;;;;;;;15.15;6.88;;;;;;;0.73;57.98;92453.44;5045971;28;20068;-85
2022/03/05 09:45:47;;;;;;;11.82;6.20;;;;;;;0.87;58.22;92459.91;5074599;28;20392;-87
2022/03/05 09:48:19;;;;;;;21.30;7.63;;;;;;;0.70;57.99;92407.50;5074751;28;20044;-85
2022/03/05 09:50:48;;;;;;;;;;;;;;;1.09;57.65;92477.38;5092800;28;20036;-86
2022/03/05 09:53:13;;;;;;;11.05;5.38;;;;;;;0.85;57.88;92456.78;5093041;28;19919;-87
2022/03/05 09:55:41;;;;;;;7.10;4.32;;;;;;;0.94;57.44;92470.88;5070992;28;20576;-86
2022/03/05 09:58:07;;;;;;;14.25;6.70;;;;;;;0.36;58.14;92410.69;5074665;28;20059;-85
2022/03/05 10:00:36;;;;;;;14.07;7.20;;;;;;;0.49;57.64;92440.56;5052320;28;20020;-88
2022/03/05 10:03:05;;;;;;;11.98;6.35;;;;;;;0.20;58.28;92408.78;5073542;28;20033;-84
2022/03/05 10:05:32;;;;;;;12.27;5.60;;;;;;;0.40;58.13;92419.53;5074143;28;20036;-84
2022/03/05 10:08:00;;;;;;;12.10;6.53;;;;;;;0.47;57.92;92454.69;5074861;28;20036;-85
2022/03/05 10:10:26;;;;;;;16.50;8.65;;;;;;;0.37;59.04;92434.66;5074630;28;20047;-86
2022/03/05 10:12:54;;;;;;;13.55;6.47;;;;;;;0.76;57.82;92463.28;5051313;28;20115;-87
2022/03/05 10:15:22;;;;;;;14.68;7.07;;;;;;;0.68;57.59;92436.09;5054753;28;20045;-85
2022/03/05 10:18:01;;;;;;;14.90;7.72;;;;;;;0.82;57.74;92488.16;5071099;28;20052;-85
2022/03/05 10:20:33;;;;;;;13.43;6.85;;;;;;;0.37;57.82;92404.53;5071035;28;20029;-86
2022/03/05 10:23:04;;;;;;;14.48;8.23;;;;;;;0.92;56.99;92449.69;5073748;28;20056;-87
2022/03/05 10:25:39;;;;;;;17.15;7.57;;;;;;;0.76;56.77;92422.84;5074604;28;20032;-85
2022/03/05 10:28:14;;;;;;;18.27;9.25;;;;;;;1.09;56.96;92452.34;5049675;28;20136;-87
2022/03/05 10:30:42;;;;;;;21.42;8.32;;;;;;;1.19;57.39;92400.19;5037250;28;20047;-86
2022/03/05 10:33:35;;;;;;;19.70;8.38;;;;;;;1.65;56.54;92419.06;5066764;28;20519;-87
2022/03/05 10:36:03;;;;;;;16.73;8.30;;;;;;;1.72;56.56;92442.91;5057466;28;20123;-86
2022/03/05 10:38:53;;;;;;;18.38;8.32;;;;;;;2.13;55.43;92435.81;5051133;28;20086;-86
2022/03/05 10:41:30;;;;;;;18.80;8.95;;;;;;;2.20;54.07;92420.16;5054376;28;20051;-86
2022/03/05 10:44:17;;;;;;;16.15;8.60;;;;;;;2.80;52.93;92457.44;5056937;28;20044;-87
2022/03/05 10:47:01;;;;;;;20.35;8.52;;;;;;;2.90;52.04;92429.91;5056616;28;20047;-85
2022/03/05 10:49:46;;;;;;;22.85;8.60;;;;;;;3.00;50.53;92425.88;5057560;28;20047;-85
2022/03/05 10:52:22;;;;;;;17.23;8.60;;;;;;;2.68;50.70;92388.53;5053404;28;20070;-85
2022/03/05 10:54:50;;;;;;;10.43;6.38;;;;;;;2.65;51.29;92393.38;5052777;28;20060;-85
2022/03/05 10:57:23;;;;;;;11.93;6.18;;;;;;;2.65;50.76;92455.41;5056940;28;20048;-85
2022/03/05 10:59:52;;;;;;;13.43;7.93;;;;;;;2.62;51.76;92422.31;5073525;28;20043;-86
2022/03/05 11:02:21;;;;;;;16.02;7.78;;;;;;;3.28;51.64;92401.59;5056431;28;20051;-86
2022/03/05 11:04:48;;;;;;;19.48;8.95;;;;;;;3.77;49.59;92385.25;5056285;28;20050;-86
2022/03/05 11:07:17;;;;;;;14.00;5.57;;;;;;;3.54;47.75;92393.06;5038828;28;20058;-86
2022/03/05 11:09:44;;;;;;;14.23;7.43;;;;;;;3.61;48.93;92426.53;5061196;28;20020;-86
2022/03/05 11:12:18;;;;;;;15.43;8.23;;;;;;;3.40;49.15;92396.28;5046701;28;20036;-86
2022/03/05 11:14:52;;;;;;;14.95;7.78;;;;;;;2.73;49.64;92374.09;5069309;28;20028;-86
2022/03/05 11:17:25;;;;;;;16.75;7.78;;;;;;;3.05;50.38;92413.78;5074782;28;20036;-86
2022/03/05 11:19:56;;;;;;;22.80;8.90;;;;;;;3.00;48.81;92367.19;5056580;28;20123;-86
2022/03/05 11:22:49;;;;;;;;;;;;;;;;;;;;;
2022/03/05 11:25:26;;;;;;;;;;;;;;;3.88;48.06;92434.28;5072869;28;20044;-89
2022/03/05 11:28:04;;;;;;;18.35;8.60;;;;;;;3.88;49.10;92361.78;5038337;28;19959;-84
2022/03/05 11:30:43;;;;;;;15.60;8.15;;;;;;;4.73;46.27;92395.47;5058575;28;20396;-86
2022/03/05 11:33:31;;;;;;;14.15;7.82;;;;;;;4.34;45.76;92379.44;5071174;28;20043;-84
2022/03/05 11:36:21;;;;;;;18.38;7.78;;;;;;;4.00;47.31;92405.63;5070547;28;20066;-85
2022/03/05 11:38:47;;;;;;;19.67;8.50;;;;;;;3.74;49.13;92415.00;5091871;28;20051;-85
2022/03/05 11:41:25;;;;;;;17.10;9.02;;;;;;;3.74;48.19;92412.41;5074550;28;20036;-84
2022/03/05 11:43:51;;;;;;;17.40;8.05;;;;;;;3.78;48.33;92403.09;5078209;28;20035;-85
2022/03/05 11:46:27;;;;;;;13.95;7.93;;;;;;;4.41;47.23;92402.53;5077688;28;20032;-85
2022/03/05 11:49:01;;;;;;;13.57;7.25;;;;;;;4.21;47.82;92391.03;5077881;28;20039;-85
2022/03/05 11:51:27;;;;;;;15.07;8.18;;;;;;;4.21;47.27;92385.84;5061120;28;20442;-87
2022/03/05 11:54:12;;;;;;;17.50;8.32;;;;;;;4.76;46.49;92387.19;5060380;28;20043;-86
2022/03/05 11:56:38;;;;;;;15.93;7.75;;;;;;;4.76;47.27;92373.44;5054390;28;20036;-85
2022/03/05 11:59:30;;;;;;;16.70;8.32;;;;;;;4.56;47.27;92381.91;5073937;28;20374;-87
2022/03/05 12:01:57;;;;;;;18.17;8.68;;;;;;;4.46;46.50;92374.06;5057172;28;20053;-85
2022/03/05 12:04:26;;;;;;;18.73;9.20;;;;;;;4.83;46.60;92373.97;5060594;28;20062;-85
2022/03/05 12:07:01;;;;;;;16.67;9.30;;;;;;;5.02;46.37;92363.94;5095378;28;20108;-85
2022/03/05 12:09:36;;;;;;;16.95;8.10;;;;;;;5.20;46.53;92373.06;5060313;28;20043;-87
2022/03/05 12:12:04;;;;;;;16.42;8.93;;;;;;;5.78;44.02;92358.09;5059016;28;20043;-86
2022/03/05 12:15:00;;;;;;;16.02;7.60;;;;;;;5.90;43.87;92357.88;5076156;28;20044;-87
2022/03/05 12:17:32;;;;;;;17.70;8.88;;;;;;;5.70;44.21;92355.28;5060192;28;20032;-85
2022/03/05 12:19:57;;;;;;;20.67;10.05;;;;;;;5.23;44.82;92351.81;5076823;28;20035;-87
2022/03/05 12:22:23;;;;;;;18.75;9.40;;;;;;;4.44;46.89;92358.00;5060774;28;20028;-85
2022/03/05 12:24:49;;;;;;;19.23;8.75;;;;;;;4.34;46.66;92328.38;5060592;28;20044;-87
2022/03/05 12:27:17;;;;;;;16.48;8.25;;;;;;;4.61;46.55;92327.47;5060493;28;20040;-86
2022/03/05 12:29:49;;;;;;;16.80;8.73;;;;;;;4.35;46.94;92339.53;5060866;28;20127;-85
2022/03/05 12:32:15;;;;;;;18.25;9.38;;;;;;;3.91;47.43;92325.00;5068949;28;20044;-86
2022/03/05 12:34:41;;;;;;;21.63;9.45;;;;;;;3.92;48.29;92347.31;5076556;28;20031;-86
2022/03/05 12:37:07;;;;;;;18.92;9.98;;;;;;;2.99;49.32;92292.41;5077057;28;20743;-85
2022/03/05 12:39:34;;;;;;;16.25;7.63;;;;;;;3.71;48.80;92336.00;5077177;28;20084;-85
2022/03/05 12:41:59;;;;;;;18.98;9.32;;;;;;;3.75;48.17;92328.53;5094824;28;20469;-85
2022/03/05 12:44:36;;;;;;;14.77;7.90;;;;;;;3.90;47.96;92322.69;5044962;28;20063;-85
2022/03/05 12:47:03;;;;;;;19.17;8.90;;;;;;;3.74;48.28;92322.56;5039749;28;20363;-85
2022/03/05 12:49:28;;;;;;;18.55;9.40;;;;;;;3.37;49.37;92322.50;5040397;28;20041;-85
2022/03/05 12:52:30;;;;;;;24.88;10.10;;;;;;;3.81;48.39;92319.78;5023166;28;20039;-86
2022/03/05 12:54:59;;;;;;;16.10;8.35;;;;;;;3.40;48.08;92262.53;5036822;28;20497;-85
2022/03/05 12:57:25;;;;;;;16.20;8.90;;;;;;;4.18;47.58;92293.06;5056685;28;20114;-85
2022/03/05 13:00:01;;;;;;;18.67;7.38;;;;;;;3.49;48.17;92273.97;5056129;28;20090;-89
2022/03/05 13:02:32;;;;;;;15.75;8.82;;;;;;;3.77;47.17;92246.22;5043067;28;20059;-86
2022/03/05 13:05:11;;;;;;;18.95;8.90;;;;;;;3.87;46.86;92271.38;5058849;28;20031;-85
2022/03/05 13:07:37;;;;;;;20.77;8.77;;;;;;;3.70;47.39;92246.41;5068405;28;20109;-83
2022/03/05 13:10:07;;;;;;;19.08;9.23;;;;;;;3.70;47.92;92311.16;5052097;28;20048;-85
2022/03/05 13:12:40;;;;;;;17.27;8.70;;;;;;;3.70;47.62;92261.19;5058284;28;20392;-85
2022/03/05 13:15:25;;;;;;;17.20;8.77;;;;;;;3.50;47.83;92282.53;5046187;28;20068;-86
2022/03/05 13:18:21;;;;;;;;;;;;;;;;;;;;;
2022/03/05 13:20:49;;;;;;;17.88;9.38;;;;;;;3.88;47.70;92237.47;5075801;28;20040;-83
2022/03/05 13:23:19;;;;;;;15.73;8.20;;;;;;;3.46;47.53;92225.28;5065691;28;20047;-85
2022/03/05 13:25:50;;;;;;;15.27;7.57;;;;;;;4.33;46.87;92287.19;5055687;28;20051;-86
2022/03/05 13:28:26;;;;;;;20.48;7.95;;;;;;;4.37;46.34;92251.97;5074574;28;20043;-84
2022/03/05 13:30:59;;;;;;;15.85;7.97;;;;;;;4.49;45.53;92278.44;5073764;28;20119;-85
2022/03/05 13:33:41;;;;;;;13.05;6.55;;;;;;;4.32;45.01;92276.03;5075489;28;20051;-85
2022/03/05 13:36:17;;;;;;;15.40;7.95;;;;;;;4.13;45.74;92282.66;5075169;28;20140;-85
2022/03/05 13:38:47;;;;;;;14.13;7.60;;;;;;;3.88;45.16;92205.63;5093846;28;20043;-85
2022/03/05 13:41:21;;;;;;;16.48;9.35;;;;;;;3.62;46.92;92248.69;5051070;28;20382;-85
2022/03/05 13:43:47;;;;;;;22.45;8.70;;;;;;;3.55;45.89;92210.84;5047241;28;20055;-84